sensor_id;sensor_type;location;lat;lon;timestamp;P1;P2;P0
80692;PMS5003;70055;39.436;-77.514;2023-12-14T00:01:01;6;6;
80692;PMS5003;70055;39.436;-77.514;2023-12-14T00:03:31;6;6;
80692;PMS5003;70055;39.436;-77.514;2023-12-14T00:06:08;5;5;
80692;PMS5003;70055;39.436;-77.514;2023-12-14T00:08:47;6;5;
80692;PMS5003;70055;39.436;-77.514;2023-12-14T00:11:18;6;6;
80692;PMS5003;70055;39.436;-77.514;2023-12-14T00:13:48;5;5;
80692;PMS5003;70055;39.436;-77.514;2023-12-14T00:16:20;6;6;
80692;PMS5003;70055;39.436;-77.514;2023-12-14T00:18:55;5;5;
80692;PMS5003;70055;39.436;-77.514;2023-12-14T00:21:37;5;5;
80692;PMS5003;70055;39.436;-77.514;2023-12-14T00:24:19;8;6;
80692;PMS5003;70055;39.436;-77.514;2023-12-14T00:26:56;6;6;
80692;PMS5003;70055;39.436;-77.514;2023-12-14T00:29:28;6;6;
80692;PMS5003;70055;39.436;-77.514;2023-12-14T00:31:59;6;6;
80692;PMS5003;70055;39.436;-77.514;2023-12-14T00:34:32;8;8;
80692;PMS5003;70055;39.436;-77.514;2023-12-14T00:37:07;6;6;
80692;PMS5003;70055;39.436;-77.514;2023-12-14T00:39:40;8;6;
80692;PMS5003;70055;39.436;-77.514;2023-12-14T00:42:15;6;6;
80692;PMS5003;70055;39.436;-77.514;2023-12-14T00:44:49;6;6;
80692;PMS5003;70055;39.436;-77.514;2023-12-14T00:47:30;6;6;
80692;PMS5003;70055;39.436;-77.514;2023-12-14T00:50:11;8;8;
80692;PMS5003;70055;39.436;-77.514;2023-12-14T00:52:43;6;6;
80692;PMS5003;70055;39.436;-77.514;2023-12-14T00:55:15;6;6;
80692;PMS5003;70055;39.436;-77.514;2023-12-14T00:57:52;5;5;
80692;PMS5003;70055;39.436;-77.514;2023-12-14T01:00:35;9;8;
80692;PMS5003;70055;39.436;-77.514;2023-12-14T01:03:07;6;6;
80692;PMS5003;70055;39.436;-77.514;2023-12-14T01:05:44;9;8;
80692;PMS5003;70055;39.436;-77.514;2023-12-14T01:08:21;8;8;
80692;PMS5003;70055;39.436;-77.514;2023-12-14T01:10:58;6;6;
80692;PMS5003;70055;39.436;-77.514;2023-12-14T01:13:39;6;6;
80692;PMS5003;70055;39.436;-77.514;2023-12-14T01:16:18;8;8;
80692;PMS5003;70055;39.436;-77.514;2023-12-14T01:18:49;6;6;
80692;PMS5003;70055;39.436;-77.514;2023-12-14T01:21:26;6;5;
80692;PMS5003;70055;39.436;-77.514;2023-12-14T01:23:58;8;8;
80692;PMS5003;70055;39.436;-77.514;2023-12-14T01:26:30;8;8;
80692;PMS5003;70055;39.436;-77.514;2023-12-14T01:29:02;6;6;
80692;PMS5003;70055;39.436;-77.514;2023-12-14T01:31:40;8;8;
80692;PMS5003;70055;39.436;-77.514;2023-12-14T01:34:12;8;8;
80692;PMS5003;70055;39.436;-77.514;2023-12-14T01:36:44;9;8;
80692;PMS5003;70055;39.436;-77.514;2023-12-14T01:39:13;8;8;
80692;PMS5003;70055;39.436;-77.514;2023-12-14T01:41:47;11;9;
80692;PMS5003;70055;39.436;-77.514;2023-12-14T01:44:20;8;8;
80692;PMS5003;70055;39.436;-77.514;2023-12-14T01:46:52;8;8;
80692;PMS5003;70055;39.436;-77.514;2023-12-14T01:49:27;6;6;
80692;PMS5003;70055;39.436;-77.514;2023-12-14T01:51:59;8;8;
80692;PMS5003;70055;39.436;-77.514;2023-12-14T01:54:35;6;6;
80692;PMS5003;70055;39.436;-77.514;2023-12-14T01:57:07;6;6;
80692;PMS5003;70055;39.436;-77.514;2023-12-14T01:59:39;8;8;
80692;PMS5003;70055;39.436;-77.514;2023-12-14T02:02:15;8;8;
80692;PMS5003;70055;39.436;-77.514;2023-12-14T02:04:46;6;6;
80692;PMS5003;70055;39.436;-77.514;2023-12-14T02:07:19;11;8;
80692;PMS5003;70055;39.436;-77.514;2023-12-14T02:09:53;8;8;
80692;PMS5003;70055;39.436;-77.514;2023-12-14T02:12:28;8;6;
80692;PMS5003;70055;39.436;-77.514;2023-12-14T02:15:04;6;6;
80692;PMS5003;70055;39.436;-77.514;2023-12-14T02:17:39;6;6;
80692;PMS5003;70055;39.436;-77.514;2023-12-14T02:20:12;12;9;
80692;PMS5003;70055;39.436;-77.514;2023-12-14T02:22:50;9;9;
80692;PMS5003;70055;39.436;-77.514;2023-12-14T02:25:21;7;7;
80692;PMS5003;70055;39.436;-77.514;2023-12-14T02:27:53;9;9;
80692;PMS5003;70055;39.436;-77.514;2023-12-14T02:30:25;8;8;
80692;PMS5003;70055;39.436;-77.514;2023-12-14T02:32:58;12;12;
80692;PMS5003;70055;39.436;-77.514;2023-12-14T02:35:35;18;18;
80692;PMS5003;70055;39.436;-77.514;2023-12-14T02:38:11;9;9;
80692;PMS5003;70055;39.436;-77.514;2023-12-14T02:41:00;8;8;
80692;PMS5003;70055;39.436;-77.514;2023-12-14T02:43:47;12;12;
80692;PMS5003;70055;39.436;-77.514;2023-12-14T02:46:21;11;11;
80692;PMS5003;70055;39.436;-77.514;2023-12-14T02:48:54;14;14;
80692;PMS5003;70055;39.436;-77.514;2023-12-14T02:51:33;12;11;
80692;PMS5003;70055;39.436;-77.514;2023-12-14T02:54:16;14;12;
80692;PMS5003;70055;39.436;-77.514;2023-12-14T02:56:56;15;15;
80692;PMS5003;70055;39.436;-77.514;2023-12-14T02:59:29;12;12;
80692;PMS5003;70055;39.436;-77.514;2023-12-14T03:02:04;13;13;
80692;PMS5003;70055;39.436;-77.514;2023-12-14T03:04:39;11;11;
80692;PMS5003;70055;39.436;-77.514;2023-12-14T03:07:15;14;14;
80692;PMS5003;70055;39.436;-77.514;2023-12-14T03:09:55;13;13;
80692;PMS5003;70055;39.436;-77.514;2023-12-14T03:12:36;11;10;
80692;PMS5003;70055;39.436;-77.514;2023-12-14T03:15:10;11;10;
80692;PMS5003;70055;39.436;-77.514;2023-12-14T03:17:45;11;10;
80692;PMS5003;70055;39.436;-77.514;2023-12-14T03:20:20;10;10;
80692;PMS5003;70055;39.436;-77.514;2023-12-14T03:23:07;13;11;
80692;PMS5003;70055;39.436;-77.514;2023-12-14T03:26:02;13;11;
80692;PMS5003;70055;39.436;-77.514;2023-12-14T03:28:56;10;10;
80692;PMS5003;70055;39.436;-77.514;2023-12-14T03:31:38;10;10;
80692;PMS5003;70055;39.436;-77.514;2023-12-14T03:34:17;10;10;
80692;PMS5003;70055;39.436;-77.514;2023-12-14T03:36:51;10;10;
80692;PMS5003;70055;39.436;-77.514;2023-12-14T03:39:34;10;10;
80692;PMS5003;70055;39.436;-77.514;2023-12-14T03:42:16;10;10;
80692;PMS5003;70055;39.436;-77.514;2023-12-14T03:44:56;11;11;
80692;PMS5003;70055;39.436;-77.514;2023-12-14T03:47:33;8;8;
80692;PMS5003;70055;39.436;-77.514;2023-12-14T03:50:15;10;10;
80692;PMS5003;70055;39.436;-77.514;2023-12-14T03:52:56;8;8;
80692;PMS5003;70055;39.436;-77.514;2023-12-14T03:55:46;11;11;
80692;PMS5003;70055;39.436;-77.514;2023-12-14T03:58:15;8;8;
80692;PMS5003;70055;39.436;-77.514;2023-12-14T04:00:48;8;8;
80692;PMS5003;70055;39.436;-77.514;2023-12-14T04:03:21;8;8;
80692;PMS5003;70055;39.436;-77.514;2023-12-14T04:05:55;13;13;
80692;PMS5003;70055;39.436;-77.514;2023-12-14T04:08:40;10;10;
80692;PMS5003;70055;39.436;-77.514;2023-12-14T04:11:44;10;8;
80692;PMS5003;70055;39.436;-77.514;2023-12-14T04:14:19;7;7;
80692;PMS5003;70055;39.436;-77.514;2023-12-14T04:16:59;10;10;
80692;PMS5003;70055;39.436;-77.514;2023-12-14T04:19:31;14;11;
80692;PMS5003;70055;39.436;-77.514;2023-12-14T04:22:14;8;8;
80692;PMS5003;70055;39.436;-77.514;2023-12-14T04:24:58;8;8;
80692;PMS5003;70055;39.436;-77.514;2023-12-14T04:27:52;8;8;
80692;PMS5003;70055;39.436;-77.514;2023-12-14T04:30:33;8;8;
80692;PMS5003;70055;39.436;-77.514;2023-12-14T04:33:08;10;8;
80692;PMS5003;70055;39.436;-77.514;2023-12-14T04:36:03;10;8;
80692;PMS5003;70055;39.436;-77.514;2023-12-14T04:38:48;11;11;
80692;PMS5003;70055;39.436;-77.514;2023-12-14T04:41:33;10;8;
80692;PMS5003;70055;39.436;-77.514;2023-12-14T04:44:08;8;8;
80692;PMS5003;70055;39.436;-77.514;2023-12-14T04:46:56;10;10;
80692;PMS5003;70055;39.436;-77.514;2023-12-14T04:49:45;11;10;
80692;PMS5003;70055;39.436;-77.514;2023-12-14T04:52:22;8;8;
80692;PMS5003;70055;39.436;-77.514;2023-12-14T04:55:09;10;8;
80692;PMS5003;70055;39.436;-77.514;2023-12-14T04:57:47;8;8;
80692;PMS5003;70055;39.436;-77.514;2023-12-14T05:00:25;8;8;
80692;PMS5003;70055;39.436;-77.514;2023-12-14T05:03:09;11;11;
80692;PMS5003;70055;39.436;-77.514;2023-12-14T05:05:45;10;8;
80692;PMS5003;70055;39.436;-77.514;2023-12-14T05:08:23;8;8;
80692;PMS5003;70055;39.436;-77.514;2023-12-14T05:10:58;11;11;
80692;PMS5003;70055;39.436;-77.514;2023-12-14T05:13:38;11;10;
80692;PMS5003;70055;39.436;-77.514;2023-12-14T05:16:17;10;10;
80692;PMS5003;70055;39.436;-77.514;2023-12-14T05:18:51;10;8;
80692;PMS5003;70055;39.436;-77.514;2023-12-14T05:21:36;8;8;
80692;PMS5003;70055;39.436;-77.514;2023-12-14T05:24:14;10;10;
80692;PMS5003;70055;39.436;-77.514;2023-12-14T05:26:47;8;7;
80692;PMS5003;70055;39.436;-77.514;2023-12-14T05:29:23;10;10;
80692;PMS5003;70055;39.436;-77.514;2023-12-14T05:31:56;10;8;
80692;PMS5003;70055;39.436;-77.514;2023-12-14T05:34:31;10;10;
80692;PMS5003;70055;39.436;-77.514;2023-12-14T05:37:23;11;8;
80692;PMS5003;70055;39.436;-77.514;2023-12-14T05:40:10;7;7;
80692;PMS5003;70055;39.436;-77.514;2023-12-14T05:42:49;8;7;
80692;PMS5003;70055;39.436;-77.514;2023-12-14T05:45:22;10;8;
80692;PMS5003;70055;39.436;-77.514;2023-12-14T05:48:16;7;7;
80692;PMS5003;70055;39.436;-77.514;2023-12-14T05:50:56;11;8;
80692;PMS5003;70055;39.436;-77.514;2023-12-14T05:53:34;11;10;
80692;PMS5003;70055;39.436;-77.514;2023-12-14T05:56:06;10;10;
80692;PMS5003;70055;39.436;-77.514;2023-12-14T05:58:45;8;8;
80692;PMS5003;70055;39.436;-77.514;2023-12-14T06:01:29;11;10;
80692;PMS5003;70055;39.436;-77.514;2023-12-14T06:04:15;10;10;
80692;PMS5003;70055;39.436;-77.514;2023-12-14T06:07:00;7;7;
80692;PMS5003;70055;39.436;-77.514;2023-12-14T06:09:54;9;9;
80692;PMS5003;70055;39.436;-77.514;2023-12-14T06:12:36;10;10;
80692;PMS5003;70055;39.436;-77.514;2023-12-14T06:15:10;13;13;
80692;PMS5003;70055;39.436;-77.514;2023-12-14T06:17:52;10;10;
80692;PMS5003;70055;39.436;-77.514;2023-12-14T06:20:37;10;10;
80692;PMS5003;70055;39.436;-77.514;2023-12-14T06:23:19;9;9;
80692;PMS5003;70055;39.436;-77.514;2023-12-14T06:25:59;9;9;
80692;PMS5003;70055;39.436;-77.514;2023-12-14T06:28:37;13;10;
80692;PMS5003;70055;39.436;-77.514;2023-12-14T06:31:17;9;9;
80692;PMS5003;70055;39.436;-77.514;2023-12-14T06:33:58;12;12;
80692;PMS5003;70055;39.436;-77.514;2023-12-14T06:36:42;10;10;
80692;PMS5003;70055;39.436;-77.514;2023-12-14T06:39:11;9;9;
80692;PMS5003;70055;39.436;-77.514;2023-12-14T06:41:52;11;10;
80692;PMS5003;70055;39.436;-77.514;2023-12-14T06:44:23;10;10;
80692;PMS5003;70055;39.436;-77.514;2023-12-14T06:47:01;10;10;
80692;PMS5003;70055;39.436;-77.514;2023-12-14T06:49:41;13;11;
80692;PMS5003;70055;39.436;-77.514;2023-12-14T06:52:23;10;10;
80692;PMS5003;70055;39.436;-77.514;2023-12-14T06:54:58;11;10;
80692;PMS5003;70055;39.436;-77.514;2023-12-14T06:57:42;10;10;
80692;PMS5003;70055;39.436;-77.514;2023-12-14T07:00:24;12;12;
80692;PMS5003;70055;39.436;-77.514;2023-12-14T07:03:09;13;12;
80692;PMS5003;70055;39.436;-77.514;2023-12-14T07:05:48;12;12;
80692;PMS5003;70055;39.436;-77.514;2023-12-14T07:08:48;15;15;
80692;PMS5003;70055;39.436;-77.514;2023-12-14T07:11:30;15;12;
80692;PMS5003;70055;39.436;-77.514;2023-12-14T07:14:11;15;15;
80692;PMS5003;70055;39.436;-77.514;2023-12-14T07:16:53;13;13;
80692;PMS5003;70055;39.436;-77.514;2023-12-14T07:19:32;7;7;
80692;PMS5003;70055;39.436;-77.514;2023-12-14T07:22:12;12;12;
80692;PMS5003;70055;39.436;-77.514;2023-12-14T07:24:47;10;10;
80692;PMS5003;70055;39.436;-77.514;2023-12-14T07:27:22;9;9;
80692;PMS5003;70055;39.436;-77.514;2023-12-14T07:30:00;10;9;
80692;PMS5003;70055;39.436;-77.514;2023-12-14T07:32:51;7;7;
80692;PMS5003;70055;39.436;-77.514;2023-12-14T07:35:33;9;9;
80692;PMS5003;70055;39.436;-77.514;2023-12-14T07:38:06;8;8;
80692;PMS5003;70055;39.436;-77.514;2023-12-14T07:40:45;10;8;
80692;PMS5003;70055;39.436;-77.514;2023-12-14T07:43:28;16;12;
80692;PMS5003;70055;39.436;-77.514;2023-12-14T07:46:01;15;15;
80692;PMS5003;70055;39.436;-77.514;2023-12-14T07:48:51;10;10;
80692;PMS5003;70055;39.436;-77.514;2023-12-14T07:51:24;13;12;
80692;PMS5003;70055;39.436;-77.514;2023-12-14T07:54:07;13;12;
80692;PMS5003;70055;39.436;-77.514;2023-12-14T07:56:57;7;7;
80692;PMS5003;70055;39.436;-77.514;2023-12-14T07:59:30;9;9;
80692;PMS5003;70055;39.436;-77.514;2023-12-14T08:02:16;9;9;
80692;PMS5003;70055;39.436;-77.514;2023-12-14T08:04:58;12;10;
80692;PMS5003;70055;39.436;-77.514;2023-12-14T08:07:43;10;9;
80692;PMS5003;70055;39.436;-77.514;2023-12-14T08:10:28;10;10;
80692;PMS5003;70055;39.436;-77.514;2023-12-14T08:13:25;12;10;
80692;PMS5003;70055;39.436;-77.514;2023-12-14T08:16:14;10;7;
80692;PMS5003;70055;39.436;-77.514;2023-12-14T08:18:58;10;9;
80692;PMS5003;70055;39.436;-77.514;2023-12-14T08:21:38;7;7;
80692;PMS5003;70055;39.436;-77.514;2023-12-14T08:24:25;10;9;
80692;PMS5003;70055;39.436;-77.514;2023-12-14T08:26:59;9;9;
80692;PMS5003;70055;39.436;-77.514;2023-12-14T08:29:30;10;10;
80692;PMS5003;70055;39.436;-77.514;2023-12-14T08:32:02;7;7;
80692;PMS5003;70055;39.436;-77.514;2023-12-14T08:34:40;7;7;
80692;PMS5003;70055;39.436;-77.514;2023-12-14T08:37:16;10;10;
80692;PMS5003;70055;39.436;-77.514;2023-12-14T08:39:51;10;10;
80692;PMS5003;70055;39.436;-77.514;2023-12-14T08:42:20;12;12;
80692;PMS5003;70055;39.436;-77.514;2023-12-14T08:44:49;9;9;
80692;PMS5003;70055;39.436;-77.514;2023-12-14T08:47:18;12;12;
80692;PMS5003;70055;39.436;-77.514;2023-12-14T08:49:49;7;7;
80692;PMS5003;70055;39.436;-77.514;2023-12-14T08:52:20;7;7;
80692;PMS5003;70055;39.436;-77.514;2023-12-14T08:54:58;10;10;
80692;PMS5003;70055;39.436;-77.514;2023-12-14T08:57:36;10;10;
80692;PMS5003;70055;39.436;-77.514;2023-12-14T09:00:10;13;13;
80692;PMS5003;70055;39.436;-77.514;2023-12-14T09:02:44;18;18;
80692;PMS5003;70055;39.436;-77.514;2023-12-14T09:05:24;12;10;
80692;PMS5003;70055;39.436;-77.514;2023-12-14T09:08:03;16;15;
80692;PMS5003;70055;39.436;-77.514;2023-12-14T09:10:44;13;13;
80692;PMS5003;70055;39.436;-77.514;2023-12-14T09:13:17;18;18;
80692;PMS5003;70055;39.436;-77.514;2023-12-14T09:15:57;16;13;
80692;PMS5003;70055;39.436;-77.514;2023-12-14T09:18:31;13;10;
80692;PMS5003;70055;39.436;-77.514;2023-12-14T09:21:05;13;12;
80692;PMS5003;70055;39.436;-77.514;2023-12-14T09:23:45;13;13;
80692;PMS5003;70055;39.436;-77.514;2023-12-14T09:26:29;9;9;
80692;PMS5003;70055;39.436;-77.514;2023-12-14T09:29:08;10;10;
80692;PMS5003;70055;39.436;-77.514;2023-12-14T09:31:53;6;6;
80692;PMS5003;70055;39.436;-77.514;2023-12-14T09:34:30;7;6;
80692;PMS5003;70055;39.436;-77.514;2023-12-14T09:37:13;10;10;
80692;PMS5003;70055;39.436;-77.514;2023-12-14T09:39:53;7;7;
80692;PMS5003;70055;39.436;-77.514;2023-12-14T09:42:38;7;7;
80692;PMS5003;70055;39.436;-77.514;2023-12-14T09:45:18;10;10;
80692;PMS5003;70055;39.436;-77.514;2023-12-14T09:47:58;9;9;
80692;PMS5003;70055;39.436;-77.514;2023-12-14T09:50:33;10;10;
80692;PMS5003;70055;39.436;-77.514;2023-12-14T09:53:13;7;7;
80692;PMS5003;70055;39.436;-77.514;2023-12-14T09:55:47;7;7;
80692;PMS5003;70055;39.436;-77.514;2023-12-14T09:58:28;9;7;
80692;PMS5003;70055;39.436;-77.514;2023-12-14T10:01:22;7;7;
80692;PMS5003;70055;39.436;-77.514;2023-12-14T10:04:11;7;6;
80692;PMS5003;70055;39.436;-77.514;2023-12-14T10:06:55;7;7;
80692;PMS5003;70055;39.436;-77.514;2023-12-14T10:09:31;9;9;
80692;PMS5003;70055;39.436;-77.514;2023-12-14T10:12:09;12;12;
80692;PMS5003;70055;39.436;-77.514;2023-12-14T10:14:46;6;6;
80692;PMS5003;70055;39.436;-77.514;2023-12-14T10:17:37;9;7;
80692;PMS5003;70055;39.436;-77.514;2023-12-14T10:20:16;9;9;
80692;PMS5003;70055;39.436;-77.514;2023-12-14T10:23:06;6;6;
80692;PMS5003;70055;39.436;-77.514;2023-12-14T10:25:56;9;9;
80692;PMS5003;70055;39.436;-77.514;2023-12-14T10:29:00;6;6;
80692;PMS5003;70055;39.436;-77.514;2023-12-14T10:31:43;9;7;
80692;PMS5003;70055;39.436;-77.514;2023-12-14T10:34:20;6;6;
80692;PMS5003;70055;39.436;-77.514;2023-12-14T10:36:54;7;7;
80692;PMS5003;70055;39.436;-77.514;2023-12-14T10:39:27;7;7;
80692;PMS5003;70055;39.436;-77.514;2023-12-14T10:42:05;13;13;
80692;PMS5003;70055;39.436;-77.514;2023-12-14T10:44:51;10;10;
80692;PMS5003;70055;39.436;-77.514;2023-12-14T10:47:39;12;12;
80692;PMS5003;70055;39.436;-77.514;2023-12-14T10:50:26;12;12;
80692;PMS5003;70055;39.436;-77.514;2023-12-14T10:53:17;9;9;
80692;PMS5003;70055;39.436;-77.514;2023-12-14T10:55:49;10;10;
80692;PMS5003;70055;39.436;-77.514;2023-12-14T10:58:19;10;10;
80692;PMS5003;70055;39.436;-77.514;2023-12-14T11:01:17;7;7;
80692;PMS5003;70055;39.436;-77.514;2023-12-14T11:03:58;10;10;
80692;PMS5003;70055;39.436;-77.514;2023-12-14T11:06:33;7;7;
80692;PMS5003;70055;39.436;-77.514;2023-12-14T11:09:18;13;13;
80692;PMS5003;70055;39.436;-77.514;2023-12-14T11:11:57;18;18;
80692;PMS5003;70055;39.436;-77.514;2023-12-14T11:14:45;22;21;
80692;PMS5003;70055;39.436;-77.514;2023-12-14T11:17:30;16;16;
80692;PMS5003;70055;39.436;-77.514;2023-12-14T11:20:25;12;12;
80692;PMS5003;70055;39.436;-77.514;2023-12-14T11:23:17;16;16;
80692;PMS5003;70055;39.436;-77.514;2023-12-14T11:26:21;15;15;
80692;PMS5003;70055;39.436;-77.514;2023-12-14T11:29:16;13;12;
80692;PMS5003;70055;39.436;-77.514;2023-12-14T11:31:55;10;10;
80692;PMS5003;70055;39.436;-77.514;2023-12-14T11:34:36;10;10;
80692;PMS5003;70055;39.436;-77.514;2023-12-14T11:37:23;9;9;
80692;PMS5003;70055;39.436;-77.514;2023-12-14T11:40:09;9;9;
80692;PMS5003;70055;39.436;-77.514;2023-12-14T11:42:57;10;10;
80692;PMS5003;70055;39.436;-77.514;2023-12-14T11:45:34;10;10;
80692;PMS5003;70055;39.436;-77.514;2023-12-14T11:48:17;10;10;
80692;PMS5003;70055;39.436;-77.514;2023-12-14T11:50:53;9;9;
80692;PMS5003;70055;39.436;-77.514;2023-12-14T11:53:47;10;10;
80692;PMS5003;70055;39.436;-77.514;2023-12-14T11:56:32;9;9;
80692;PMS5003;70055;39.436;-77.514;2023-12-14T11:59:17;10;10;
80692;PMS5003;70055;39.436;-77.514;2023-12-14T12:02:01;9;9;
80692;PMS5003;70055;39.436;-77.514;2023-12-14T12:04:52;9;9;
80692;PMS5003;70055;39.436;-77.514;2023-12-14T12:07:30;9;9;
80692;PMS5003;70055;39.436;-77.514;2023-12-14T12:10:15;9;9;
80692;PMS5003;70055;39.436;-77.514;2023-12-14T12:13:12;7;7;
80692;PMS5003;70055;39.436;-77.514;2023-12-14T12:15:52;9;7;
80692;PMS5003;70055;39.436;-77.514;2023-12-14T12:18:47;9;9;
80692;PMS5003;70055;39.436;-77.514;2023-12-14T12:21:31;7;7;
80692;PMS5003;70055;39.436;-77.514;2023-12-14T12:24:01;7;7;
80692;PMS5003;70055;39.436;-77.514;2023-12-14T12:26:31;9;7;
80692;PMS5003;70055;39.436;-77.514;2023-12-14T12:29:02;10;9;
80692;PMS5003;70055;39.436;-77.514;2023-12-14T12:31:38;9;9;
80692;PMS5003;70055;39.436;-77.514;2023-12-14T12:34:11;10;9;
80692;PMS5003;70055;39.436;-77.514;2023-12-14T12:36:47;9;9;
80692;PMS5003;70055;39.436;-77.514;2023-12-14T12:39:24;7;7;
80692;PMS5003;70055;39.436;-77.514;2023-12-14T12:42:16;7;7;
80692;PMS5003;70055;39.436;-77.514;2023-12-14T12:44:48;7;7;
80692;PMS5003;70055;39.436;-77.514;2023-12-14T12:47:21;13;13;
80692;PMS5003;70055;39.436;-77.514;2023-12-14T12:49:56;18;16;
80692;PMS5003;70055;39.436;-77.514;2023-12-14T12:52:34;13;13;
80692;PMS5003;70055;39.436;-77.514;2023-12-14T12:55:15;12;10;
80692;PMS5003;70055;39.436;-77.514;2023-12-14T12:58:04;12;12;
80692;PMS5003;70055;39.436;-77.514;2023-12-14T13:00:51;12;12;
80692;PMS5003;70055;39.436;-77.514;2023-12-14T13:03:33;9;9;
80692;PMS5003;70055;39.436;-77.514;2023-12-14T13:06:12;10;10;
80692;PMS5003;70055;39.436;-77.514;2023-12-14T13:08:56;10;10;
80692;PMS5003;70055;39.436;-77.514;2023-12-14T13:11:34;10;10;
80692;PMS5003;70055;39.436;-77.514;2023-12-14T13:14:19;13;12;
80692;PMS5003;70055;39.436;-77.514;2023-12-14T13:16:53;15;13;
80692;PMS5003;70055;39.436;-77.514;2023-12-14T13:19:27;9;9;
80692;PMS5003;70055;39.436;-77.514;2023-12-14T13:22:05;10;10;
80692;PMS5003;70055;39.436;-77.514;2023-12-14T13:24:41;11;10;
80692;PMS5003;70055;39.436;-77.514;2023-12-14T13:27:19;10;10;
80692;PMS5003;70055;39.436;-77.514;2023-12-14T13:29:57;9;9;
80692;PMS5003;70055;39.436;-77.514;2023-12-14T13:32:32;10;9;
80692;PMS5003;70055;39.436;-77.514;2023-12-14T13:35:06;14;11;
80692;PMS5003;70055;39.436;-77.514;2023-12-14T13:37:51;16;11;
80692;PMS5003;70055;39.436;-77.514;2023-12-14T13:40:25;10;10;
80692;PMS5003;70055;39.436;-77.514;2023-12-14T13:43:02;10;8;
80692;PMS5003;70055;39.436;-77.514;2023-12-14T13:45:32;10;10;
80692;PMS5003;70055;39.436;-77.514;2023-12-14T13:48:08;14;14;
80692;PMS5003;70055;39.436;-77.514;2023-12-14T13:50:42;11;11;
80692;PMS5003;70055;39.436;-77.514;2023-12-14T13:53:16;10;10;
80692;PMS5003;70055;39.436;-77.514;2023-12-14T13:55:51;13;13;
80692;PMS5003;70055;39.436;-77.514;2023-12-14T13:58:24;11;11;
80692;PMS5003;70055;39.436;-77.514;2023-12-14T14:00:59;13;13;
80692;PMS5003;70055;39.436;-77.514;2023-12-14T14:03:33;17;17;
80692;PMS5003;70055;39.436;-77.514;2023-12-14T14:06:02;16;14;
80692;PMS5003;70055;39.436;-77.514;2023-12-14T14:08:35;14;14;
80692;PMS5003;70055;39.436;-77.514;2023-12-14T14:11:20;14;13;
80692;PMS5003;70055;39.436;-77.514;2023-12-14T14:13:58;14;12;
80692;PMS5003;70055;39.436;-77.514;2023-12-14T14:16:44;14;14;
80692;PMS5003;70055;39.436;-77.514;2023-12-14T14:19:18;17;15;
80692;PMS5003;70055;39.436;-77.514;2023-12-14T14:21:53;11;11;
80692;PMS5003;70055;39.436;-77.514;2023-12-14T14:24:33;14;14;
80692;PMS5003;70055;39.436;-77.514;2023-12-14T14:27:15;14;14;
80692;PMS5003;70055;39.436;-77.514;2023-12-14T14:29:56;17;17;
80692;PMS5003;70055;39.436;-77.514;2023-12-14T14:32:35;14;14;
80692;PMS5003;70055;39.436;-77.514;2023-12-14T14:35:16;15;15;
80692;PMS5003;70055;39.436;-77.514;2023-12-14T14:38:38;4;4;
80692;PMS5003;70055;39.436;-77.514;2023-12-14T14:41:06;15;12;
80692;PMS5003;70055;39.436;-77.514;2023-12-14T14:43:34;8;8;
80692;PMS5003;70055;39.436;-77.514;2023-12-14T14:46:03;13;12;
80692;PMS5003;70055;39.436;-77.514;2023-12-14T14:48:31;15;15;
80692;PMS5003;70055;39.436;-77.514;2023-12-14T14:50:59;15;13;
80692;PMS5003;70055;39.436;-77.514;2023-12-14T14:53:26;15;13;
80692;PMS5003;70055;39.436;-77.514;2023-12-14T14:55:54;12;12;
80692;PMS5003;70055;39.436;-77.514;2023-12-14T14:58:23;10;10;
80692;PMS5003;70055;39.436;-77.514;2023-12-14T15:00:50;10;10;
80692;PMS5003;70055;39.436;-77.514;2023-12-14T15:03:18;9;9;
80692;PMS5003;70055;39.436;-77.514;2023-12-14T15:05:46;12;10;
80692;PMS5003;70055;39.436;-77.514;2023-12-14T15:08:13;10;10;
80692;PMS5003;70055;39.436;-77.514;2023-12-14T15:10:41;10;10;
80692;PMS5003;70055;39.436;-77.514;2023-12-14T15:13:08;9;9;
80692;PMS5003;70055;39.436;-77.514;2023-12-14T15:15:36;12;12;
80692;PMS5003;70055;39.436;-77.514;2023-12-14T15:18:04;11;11;
80692;PMS5003;70055;39.436;-77.514;2023-12-14T15:20:31;9;9;
80692;PMS5003;70055;39.436;-77.514;2023-12-14T15:22:59;8;8;
80692;PMS5003;70055;39.436;-77.514;2023-12-14T15:25:26;7;7;
80692;PMS5003;70055;39.436;-77.514;2023-12-14T15:27:54;7;7;
80692;PMS5003;70055;39.436;-77.514;2023-12-14T15:30:21;11;9;
80692;PMS5003;70055;39.436;-77.514;2023-12-14T15:32:49;11;11;
80692;PMS5003;70055;39.436;-77.514;2023-12-14T15:35:16;10;10;
80692;PMS5003;70055;39.436;-77.514;2023-12-14T15:37:44;13;13;
80692;PMS5003;70055;39.436;-77.514;2023-12-14T15:40:11;13;13;
80692;PMS5003;70055;39.436;-77.514;2023-12-14T15:42:39;10;10;
80692;PMS5003;70055;39.436;-77.514;2023-12-14T15:45:08;13;11;
80692;PMS5003;70055;39.436;-77.514;2023-12-14T15:47:36;9;9;
80692;PMS5003;70055;39.436;-77.514;2023-12-14T15:50:04;11;10;
80692;PMS5003;70055;39.436;-77.514;2023-12-14T15:52:33;8;8;
80692;PMS5003;70055;39.436;-77.514;2023-12-14T15:55:01;9;9;
80692;PMS5003;70055;39.436;-77.514;2023-12-14T15:57:29;8;8;
80692;PMS5003;70055;39.436;-77.514;2023-12-14T15:59:57;8;8;
80692;PMS5003;70055;39.436;-77.514;2023-12-14T16:02:25;9;9;
80692;PMS5003;70055;39.436;-77.514;2023-12-14T16:04:53;12;10;
80692;PMS5003;70055;39.436;-77.514;2023-12-14T16:07:21;9;9;
80692;PMS5003;70055;39.436;-77.514;2023-12-14T16:09:49;11;11;
80692;PMS5003;70055;39.436;-77.514;2023-12-14T16:12:16;11;10;
80692;PMS5003;70055;39.436;-77.514;2023-12-14T16:14:45;9;9;
80692;PMS5003;70055;39.436;-77.514;2023-12-14T16:17:13;11;11;
80692;PMS5003;70055;39.436;-77.514;2023-12-14T16:19:41;11;11;
80692;PMS5003;70055;39.436;-77.514;2023-12-14T16:22:09;11;11;
80692;PMS5003;70055;39.436;-77.514;2023-12-14T16:24:37;10;10;
80692;PMS5003;70055;39.436;-77.514;2023-12-14T16:27:05;11;11;
80692;PMS5003;70055;39.436;-77.514;2023-12-14T16:29:33;10;10;
80692;PMS5003;70055;39.436;-77.514;2023-12-14T16:32:01;13;12;
80692;PMS5003;70055;39.436;-77.514;2023-12-14T16:34:30;10;10;
80692;PMS5003;70055;39.436;-77.514;2023-12-14T16:36:57;12;12;
80692;PMS5003;70055;39.436;-77.514;2023-12-14T16:39:25;11;11;
80692;PMS5003;70055;39.436;-77.514;2023-12-14T16:41:53;12;12;
80692;PMS5003;70055;39.436;-77.514;2023-12-14T16:44:21;14;14;
80692;PMS5003;70055;39.436;-77.514;2023-12-14T16:46:49;9;9;
80692;PMS5003;70055;39.436;-77.514;2023-12-14T16:49:17;9;9;
80692;PMS5003;70055;39.436;-77.514;2023-12-14T16:51:44;9;8;
80692;PMS5003;70055;39.436;-77.514;2023-12-14T16:54:11;11;9;
80692;PMS5003;70055;39.436;-77.514;2023-12-14T16:56:39;9;9;
80692;PMS5003;70055;39.436;-77.514;2023-12-14T16:59:07;9;8;
80692;PMS5003;70055;39.436;-77.514;2023-12-14T17:01:36;8;8;
80692;PMS5003;70055;39.436;-77.514;2023-12-14T17:04:04;6;6;
80692;PMS5003;70055;39.436;-77.514;2023-12-14T17:06:32;9;9;
80692;PMS5003;70055;39.436;-77.514;2023-12-14T17:09:00;11;11;